Time;durP1;ratioP1;P1;durP2;ratioP2;P2;SDS_P1;SDS_P2;PMS_P1;PMS_P2;Temp;Humidity;BMP_temperature;BMP_pressure;BME280_temperature;BME280_humidity;BME280_pressure;Samples;Min_cycle;Max_cycle;Signal;HPM_P1;HPM_P2
2022/04/10 00:01:32;;;;;;;9.55;3.05;;;2.60;99.90;;;;;;4959249;28;93197;-34
2022/04/10 00:03:58;;;;;;;11.63;4.10;;;2.70;99.90;;;;;;4957806;28;95913;-33
2022/04/10 00:06:24;;;;;;;12.70;3.92;;;2.70;99.90;;;;;;4959081;28;94813;-32
2022/04/10 00:08:50;;;;;;;12.55;3.95;;;2.70;99.90;;;;;;4960109;28;93583;-31
2022/04/10 00:11:16;;;;;;;10.40;4.50;;;2.70;99.90;;;;;;4958870;28;93329;-33
2022/04/10 00:13:42;;;;;;;7.78;3.63;;;2.80;99.90;;;;;;4959517;28;94464;-33
2022/04/10 00:16:08;;;;;;;8.23;4.43;;;2.70;99.90;;;;;;4958216;28;94160;-34
2022/04/10 00:18:34;;;;;;;3.92;3.13;;;2.70;99.90;;;;;;4959350;28;93429;-33
2022/04/10 00:21:01;;;;;;;7.15;3.80;;;2.70;99.90;;;;;;4959796;28;93682;-32
2022/04/10 00:23:27;;;;;;;5.88;3.63;;;2.70;99.90;;;;;;4958013;28;95517;-32
2022/04/10 00:25:52;;;;;;;18.23;4.65;;;2.70;99.90;;;;;;5009238;22;94458;-33
2022/04/10 00:28:18;;;;;;;11.73;4.55;;;2.70;99.90;;;;;;4998180;28;94300;-33
2022/04/10 00:30:43;;;;;;;15.93;4.10;;;2.70;99.90;;;;;;4997474;28;93518;-33
2022/04/10 00:33:09;;;;;;;7.60;3.50;;;2.60;99.90;;;;;;4998534;28;94765;-31
2022/04/10 00:35:35;;;;;;;10.85;2.83;;;2.60;99.90;;;;;;4997824;28;94854;-33
2022/04/10 00:38:00;;;;;;;11.48;3.35;;;2.60;99.90;;;;;;4998629;28;93109;-32
2022/04/10 00:40:26;;;;;;;11.23;3.53;;;2.60;99.90;;;;;;4997351;28;94620;-32
2022/04/10 00:42:52;;;;;;;10.77;3.53;;;2.60;99.90;;;;;;4998269;28;94620;-33
2022/04/10 00:45:20;;;;;;;10.82;4.22;;;2.50;99.90;;;;;;4998537;28;94573;-32
2022/04/10 00:47:46;;;;;;;;;;;2.50;99.90;;;;;;4998540;28;93194;-35
2022/04/10 00:50:13;;;;;;;8.05;4.20;;;2.50;99.90;;;;;;4999592;28;93572;-35
2022/04/10 00:52:41;;;;;;;10.95;4.25;;;2.50;99.90;;;;;;4997486;28;95861;-32
2022/04/10 00:55:07;;;;;;;16.50;4.03;;;2.50;99.90;;;;;;4998069;28;95506;-33
2022/04/10 00:57:34;;;;;;;8.95;4.30;;;2.60;99.90;;;;;;4997716;28;93221;-33
2022/04/10 00:59:59;;;;;;;11.88;4.50;;;2.60;99.90;;;;;;4998457;28;94308;-35
2022/04/10 01:02:25;;;;;;;11.18;4.25;;;2.50;99.90;;;;;;4997898;28;94653;-35
2022/04/10 01:04:51;;;;;;;9.98;4.13;;;2.50;99.90;;;;;;4997133;28;94566;-33
2022/04/10 01:07:18;;;;;;;11.45;3.55;;;2.50;99.90;;;;;;4998218;28;94744;-32
2022/04/10 01:09:45;;;;;;;8.80;3.95;;;2.60;99.90;;;;;;4997866;28;92066;-33
2022/04/10 01:12:11;;;;;;;11.30;3.83;;;2.60;99.90;;;;;;4979851;28;94347;-36
2022/04/10 01:14:38;;;;;;;11.73;4.15;;;2.50;99.90;;;;;;4997607;28;94317;-33
2022/04/10 01:17:07;;;;;;;9.55;3.28;;;2.60;99.90;;;;;;4997031;28;94695;-31
2022/04/10 01:19:34;;;;;;;11.90;4.13;;;2.50;99.90;;;;;;4997418;28;92490;-32
2022/04/10 01:22:03;;;;;;;9.77;3.75;;;2.50;99.90;;;;;;4996933;28;95781;-32
2022/04/10 01:24:29;;;;;;;6.47;3.05;;;2.50;99.90;;;;;;4998172;28;95086;-33
2022/04/10 01:26:54;;;;;;;9.07;2.97;;;2.50;99.90;;;;;;4997343;28;94310;-32
2022/04/10 01:29:20;;;;;;;13.77;3.38;;;2.50;99.90;;;;;;4997293;28;93009;-33
2022/04/10 01:31:47;;;;;;;12.57;4.63;;;2.60;99.90;;;;;;4997541;28;95393;-36
2022/04/10 01:34:14;;;;;;;10.77;3.33;;;2.60;99.90;;;;;;4997473;28;94451;-36
2022/04/10 01:36:42;;;;;;;17.05;4.25;;;2.60;99.90;;;;;;4996940;28;92502;-34
2022/04/10 01:39:09;;;;;;;15.05;4.45;;;2.50;99.90;;;;;;4997727;28;92197;-32
2022/04/10 01:41:35;;;;;;;10.35;4.28;;;2.60;99.90;;;;;;4996531;28;95541;-36
2022/04/10 01:44:03;;;;;;;11.82;3.95;;;2.50;99.90;;;;;;4997226;28;96182;-32
2022/04/10 01:46:30;;;;;;;9.45;3.63;;;2.50;99.90;;;;;;4997212;28;92961;-31
2022/04/10 01:48:57;;;;;;;13.93;4.13;;;2.50;99.90;;;;;;4997703;28;94761;-33
2022/04/10 01:51:23;;;;;;;7.18;3.83;;;2.60;99.90;;;;;;4996883;28;94592;-33
2022/04/10 01:53:50;;;;;;;16.05;4.28;;;2.60;99.90;;;;;;4996133;28;94739;-31
2022/04/10 01:56:15;;;;;;;9.38;4.38;;;2.50;99.90;;;;;;4997634;28;93239;-33
2022/04/10 01:58:43;;;;;;;7.90;3.80;;;2.60;99.90;;;;;;4997266;28;91605;-32
2022/04/10 02:01:13;;;;;;;15.55;4.53;;;2.50;99.90;;;;;;4996868;28;95041;-32
2022/04/10 02:03:40;;;;;;;13.57;4.28;;;2.50;99.90;;;;;;4996319;28;94438;-34
2022/04/10 02:06:07;;;;;;;10.25;5.03;;;2.50;99.90;;;;;;4996540;28;95148;-33
2022/04/10 02:08:35;;;;;;;11.35;4.05;;;2.60;99.90;;;;;;4996969;28;93391;-35
2022/04/10 02:11:02;;;;;;;15.23;3.97;;;2.60;99.90;;;;;;4996882;28;96608;-32
2022/04/10 02:13:28;;;;;;;9.25;3.92;;;2.60;99.90;;;;;;4996616;28;94727;-34
2022/04/10 02:15:53;;;;;;;12.70;4.43;;;2.60;99.90;;;;;;4996684;28;93324;-31
2022/04/10 02:18:20;;;;;;;7.78;3.88;;;2.50;99.90;;;;;;4996882;28;93339;-35
2022/04/10 02:20:45;;;;;;;10.57;3.92;;;2.50;99.90;;;;;;4995850;28;94798;-36
2022/04/10 02:23:11;;;;;;;8.88;4.25;;;2.50;99.90;;;;;;4997283;28;94370;-32
2022/04/10 02:25:36;;;;;;;11.40;4.22;;;2.40;99.90;;;;;;4995836;28;94463;-32
2022/04/10 02:28:02;;;;;;;11.80;3.85;;;2.40;99.90;;;;;;4997043;28;94459;-31
2022/04/10 02:30:28;;;;;;;11.57;3.78;;;2.50;99.90;;;;;;4995152;28;95780;-34
2022/04/10 02:32:53;;;;;;;13.98;5.03;;;2.50;99.90;;;;;;4996359;28;95494;-31
2022/04/10 02:35:19;;;;;;;11.73;4.57;;;2.40;99.90;;;;;;4996633;28;95127;-34
2022/04/10 02:37:45;;;;;;;19.30;5.43;;;2.40;99.90;;;;;;4996370;28;93461;-35
2022/04/10 02:40:16;;;;;;;12.95;4.43;;;2.40;99.90;;;;;;4996518;28;95087;-33
2022/04/10 02:42:42;;;;;;;10.57;3.95;;;2.40;99.90;;;;;;4978456;28;94565;-35
2022/04/10 02:45:08;;;;;;;10.90;4.60;;;2.40;99.90;;;;;;4996473;28;93517;-33
2022/04/10 02:47:34;;;;;;;10.02;4.57;;;2.40;99.90;;;;;;4997038;28;93211;-32
2022/04/10 02:50:00;;;;;;;15.45;5.03;;;2.40;99.90;;;;;;4996352;28;100965;-35
2022/04/10 02:52:26;;;;;;;12.50;4.82;;;2.40;99.90;;;;;;4996145;28;95203;-34
2022/04/10 02:54:52;;;;;;;8.48;3.88;;;2.40;99.90;;;;;;4995850;28;94197;-32
2022/04/10 02:57:17;;;;;;;15.18;4.30;;;2.40;99.90;;;;;;4995789;28;93797;-33
2022/04/10 02:59:43;;;;;;;10.07;3.67;;;2.30;99.90;;;;;;4995549;28;94956;-35
2022/04/10 03:02:09;;;;;;;11.75;4.25;;;2.30;99.90;;;;;;4996723;28;94733;-32
2022/04/10 03:04:34;;;;;;;9.75;4.10;;;2.30;99.90;;;;;;4996212;28;94557;-37
2022/04/10 03:07:00;;;;;;;10.13;4.50;;;2.40;99.90;;;;;;4999838;28;93589;-34
2022/04/10 03:09:25;;;;;;;11.63;5.05;;;2.40;99.90;;;;;;4999237;28;94583;-35
2022/04/10 03:11:51;;;;;;;13.18;4.35;;;2.40;99.90;;;;;;5000010;28;94548;-35
2022/04/10 03:14:17;;;;;;;6.85;3.95;;;2.30;99.90;;;;;;4999817;28;93038;-33
2022/04/10 03:16:43;;;;;;;10.77;4.07;;;2.30;99.90;;;;;;4998078;28;92140;-35
2022/04/10 03:19:09;;;;;;;7.63;3.83;;;2.30;99.90;;;;;;4999274;28;95630;-35
2022/04/10 03:21:34;;;;;;;10.68;4.57;;;2.40;99.90;;;;;;4998561;28;95237;-36
2022/04/10 03:24:01;;;;;;;9.13;4.22;;;2.40;99.90;;;;;;4999773;28;92573;-31
2022/04/10 03:26:27;;;;;;;20.10;4.43;;;2.40;99.90;;;;;;4999736;28;92883;-33
2022/04/10 03:28:53;;;;;;;14.75;3.80;;;2.50;99.90;;;;;;4999094;28;94646;-31
2022/04/10 03:31:20;;;;;;;9.80;4.70;;;2.50;99.90;;;;;;4999095;28;95037;-36
2022/04/10 03:33:46;;;;;;;10.57;4.55;;;2.60;99.90;;;;;;4999231;28;94747;-32
2022/04/10 03:36:12;;;;;;;19.23;4.90;;;2.70;99.90;;;;;;4999628;28;92445;-30
2022/04/10 03:38:38;;;;;;;9.40;3.17;;;2.70;99.90;;;;;;4999458;28;95589;-32
2022/04/10 03:41:04;;;;;;;8.80;4.28;;;2.70;99.90;;;;;;4998820;28;94545;-32
2022/04/10 03:43:29;;;;;;;11.25;4.00;;;2.70;99.90;;;;;;4998693;28;96083;-36
2022/04/10 03:45:55;;;;;;;13.45;3.92;;;2.70;99.90;;;;;;4998581;28;94200;-33
2022/04/10 03:48:20;;;;;;;16.70;3.90;;;2.70;99.90;;;;;;4998803;28;94902;-35
2022/04/10 03:50:46;;;;;;;13.40;4.25;;;2.70;99.90;;;;;;4998922;28;93844;-31
2022/04/10 03:53:11;;;;;;;9.82;4.30;;;2.80;99.90;;;;;;4999121;28;94452;-31
2022/04/10 03:55:37;;;;;;;16.70;4.53;;;2.80;99.90;;;;;;4998925;28;92683;-32
2022/04/10 03:58:02;;;;;;;12.80;4.07;;;2.80;99.90;;;;;;4998834;28;93867;-32
2022/04/10 04:00:28;;;;;;;12.15;3.60;;;2.70;99.90;;;;;;4999907;28;95290;-34
2022/04/10 04:02:54;;;;;;;15.80;3.85;;;2.70;99.90;;;;;;4999165;28;94001;-32
2022/04/10 04:05:19;;;;;;;12.02;3.72;;;2.70;99.90;;;;;;4998974;28;93651;-36
2022/04/10 04:07:45;;;;;;;5.38;3.67;;;2.80;99.90;;;;;;4998070;28;95464;-31
2022/04/10 04:10:10;;;;;;;8.38;3.95;;;2.80;99.90;;;;;;4998381;28;95579;-35
2022/04/10 04:12:37;;;;;;;8.85;3.47;;;2.90;99.90;;;;;;4998675;28;92691;-32
2022/04/10 04:15:06;;;;;;;8.73;3.63;;;2.90;99.90;;;;;;4998331;28;92186;-30
2022/04/10 04:17:31;;;;;;;10.52;3.70;;;2.80;99.90;;;;;;4997706;28;94516;-35
2022/04/10 04:19:58;;;;;;;14.98;3.92;;;2.70;99.90;;;;;;4997645;28;100898;-35
2022/04/10 04:22:23;;;;;;;7.80;4.25;;;2.70;99.90;;;;;;4998706;28;92510;-33
2022/04/10 04:24:49;;;;;;;5.50;2.85;;;2.70;99.90;;;;;;4998127;28;92957;-32
2022/04/10 04:27:15;;;;;;;10.50;2.97;;;2.70;99.90;;;;;;4998742;28;94514;-31
2022/04/10 04:29:40;;;;;;;6.97;3.05;;;2.60;99.90;;;;;;4997817;28;94620;-33
2022/04/10 04:32:06;;;;;;;8.80;3.15;;;2.60;99.90;;;;;;4998309;28;94337;-33
2022/04/10 04:34:32;;;;;;;7.38;2.80;;;2.60;99.90;;;;;;4998381;28;93639;-33
2022/04/10 04:36:57;;;;;;;8.65;2.45;;;2.60;99.90;;;;;;4997249;28;95062;-35
2022/04/10 04:39:23;;;;;;;4.43;2.17;;;2.60;99.90;;;;;;4998440;28;94463;-34
2022/04/10 04:41:49;;;;;;;5.28;2.38;;;2.60;99.90;;;;;;4998314;28;94334;-33
2022/04/10 04:44:15;;;;;;;7.68;2.00;;;2.60;99.90;;;;;;4998338;28;93401;-32
2022/04/10 04:46:41;;;;;;;4.20;2.13;;;2.60;99.90;;;;;;4997344;28;96255;-30
2022/04/10 04:49:07;;;;;;;3.00;1.92;;;2.60;99.90;;;;;;4998147;28;95142;-35
2022/04/10 04:51:35;;;;;;;5.90;1.92;;;2.60;99.90;;;;;;4999232;28;93570;-34
2022/04/10 04:54:04;;;;;;;5.60;2.42;;;2.50;99.90;;;;;;4998142;28;92160;-30
2022/04/10 04:56:30;;;;;;;4.75;2.20;;;2.50;99.90;;;;;;4997368;28;95483;-32
2022/04/10 04:58:56;;;;;;;7.00;2.22;;;2.40;99.90;;;;;;4997013;28;95594;-34
2022/04/10 05:01:22;;;;;;;4.28;2.05;;;2.40;99.90;;;;;;4999148;28;94310;-37
2022/04/10 05:03:49;;;;;;;3.63;2.30;;;2.40;99.90;;;;;;4998131;28;93474;-33
2022/04/10 05:06:15;;;;;;;7.55;2.55;;;2.30;99.90;;;;;;4997408;28;94260;-34
2022/04/10 05:08:40;;;;;;;3.15;1.98;;;2.30;99.90;;;;;;4997437;28;95143;-32
2022/04/10 05:11:09;;;;;;;3.38;2.25;;;2.30;99.90;;;;;;4997753;28;93128;-31
2022/04/10 05:13:35;;;;;;;6.82;2.35;;;2.30;99.90;;;;;;4997938;28;92773;-36
2022/04/10 05:16:00;;;;;;;4.75;1.98;;;2.30;99.90;;;;;;4997619;28;94524;-31
2022/04/10 05:18:26;;;;;;;3.88;1.90;;;2.30;99.90;;;;;;4997180;28;94537;-30
2022/04/10 05:20:52;;;;;;;4.38;2.20;;;2.30;99.90;;;;;;4997551;28;93797;-33
2022/04/10 05:23:19;;;;;;;4.35;2.47;;;2.30;99.90;;;;;;4997229;28;93217;-32
2022/04/10 05:25:44;;;;;;;5.95;2.35;;;2.30;99.90;;;;;;4996409;28;94728;-36
2022/04/10 05:28:10;;;;;;;4.88;2.40;;;2.40;99.90;;;;;;4997724;28;94538;-34
2022/04/10 05:30:36;;;;;;;2.70;2.40;;;2.50;99.90;;;;;;4997466;28;94547;-34
2022/04/10 05:33:01;;;;;;;5.47;1.80;;;2.40;99.90;;;;;;4997633;28;93202;-32
2022/04/10 05:35:27;;;;;;;2.47;1.85;;;2.50;99.90;;;;;;4997039;28;94870;-36
2022/04/10 05:37:52;;;;;;;6.40;2.63;;;2.50;99.90;;;;;;4997178;28;94631;-33
2022/04/10 05:40:18;;;;;;;6.35;2.33;;;2.60;99.90;;;;;;4997790;28;94485;-32
2022/04/10 05:42:45;;;;;;;3.80;2.67;;;2.70;99.90;;;;;;4996628;28;93092;-32
2022/04/10 05:45:11;;;;;;;3.08;1.83;;;2.70;99.90;;;;;;4996927;28;96140;-34
2022/04/10 05:47:39;;;;;;;5.43;2.45;;;2.70;99.90;;;;;;4996772;28;95234;-33
2022/04/10 05:50:05;;;;;;;2.75;2.05;;;2.70;99.90;;;;;;4997614;28;94940;-31
2022/04/10 05:52:31;;;;;;;7.25;2.47;;;2.80;99.90;;;;;;4997929;28;95132;-34
2022/04/10 05:54:59;;;;;;;4.25;2.47;;;2.80;99.90;;;;;;4996362;28;94720;-32
2022/04/10 05:57:25;;;;;;;5.05;2.08;;;2.80;99.90;;;;;;4996678;28;94660;-32
2022/04/10 05:59:51;;;;;;;4.32;2.28;;;2.80;99.90;;;;;;4979142;28;93819;-35
2022/04/10 06:02:17;;;;;;;12.85;3.30;;;2.90;99.90;;;;;;4997509;28;91646;-32
2022/04/10 06:04:42;;;;;;;7.00;2.67;;;3.00;99.90;;;;;;4995976;28;95275;-34
2022/04/10 06:07:08;;;;;;;5.75;2.65;;;3.00;99.90;;;;;;4997130;28;94763;-34
2022/04/10 06:09:33;;;;;;;9.10;2.30;;;3.10;99.90;;;;;;4996884;28;94611;-32
2022/04/10 06:11:59;;;;;;;7.90;2.60;;;3.20;99.90;;;;;;4997251;28;93554;-34
2022/04/10 06:14:24;;;;;;;5.13;2.70;;;3.30;99.90;;;;;;4996214;28;95543;-34
2022/04/10 06:16:50;;;;;;;9.27;2.85;;;3.40;99.90;;;;;;4996228;28;94614;-34
2022/04/10 06:19:18;;;;;;;17.83;3.72;;;3.50;99.90;;;;;;4997365;28;93894;-34
2022/04/10 06:21:44;;;;;;;4.43;2.80;;;3.60;99.90;;;;;;4996591;28;94871;-33
2022/04/10 06:24:10;;;;;;;7.13;2.35;;;3.70;99.90;;;;;;4996466;28;95019;-33
2022/04/10 06:26:35;;;;;;;8.25;2.88;;;3.70;99.90;;;;;;4995874;28;95370;-33
2022/04/10 06:29:01;;;;;;;3.67;2.05;;;3.80;99.90;;;;;;4996317;28;93623;-33
2022/04/10 06:31:27;;;;;;;11.30;2.90;;;3.90;99.90;;;;;;4996918;28;94811;-31
2022/04/10 06:33:54;;;;;;;6.50;3.17;;;4.10;99.90;;;;;;4995290;28;95699;-33
2022/04/10 06:36:20;;;;;;;11.60;2.83;;;4.10;99.90;;;;;;4996374;28;95901;-32
2022/04/10 06:38:45;;;;;;;4.97;2.75;;;4.20;99.90;;;;;;4995414;28;92164;-31
2022/04/10 06:41:11;;;;;;;4.68;1.98;;;4.50;99.90;;;;;;4996024;28;94931;-32
2022/04/10 06:43:37;;;;;;;8.30;2.65;;;4.80;99.90;;;;;;4996328;28;95514;-33
2022/04/10 06:46:04;;;;;;;7.63;2.83;;;5.10;99.90;;;;;;4996949;28;94707;-32
2022/04/10 06:48:30;;;;;;;6.95;2.35;;;4.90;99.90;;;;;;4996446;28;94553;-32
2022/04/10 06:50:56;;;;;;;12.02;2.38;;;4.70;99.90;;;;;;4995201;28;92964;-34
2022/04/10 06:53:21;;;;;;;3.97;2.58;;;4.50;99.90;;;;;;4996605;28;94760;-32
2022/04/10 06:55:47;;;;;;;5.13;2.05;;;4.30;99.90;;;;;;4996266;28;94379;-32
2022/04/10 06:58:13;;;;;;;3.50;1.90;;;4.40;99.90;;;;;;4996315;28;94175;-31
2022/04/10 07:00:40;;;;;;;5.97;2.17;;;4.70;99.90;;;;;;4995915;28;94456;-36
2022/04/10 07:03:06;;;;;;;3.95;2.47;;;5.10;99.90;;;;;;4894571;27;93393;-34
2022/04/10 07:05:31;;;;;;;4.32;2.00;;;5.50;99.90;;;;;;5014037;28;94587;-34
2022/04/10 07:07:57;;;;;;;7.20;2.35;;;5.70;99.90;;;;;;5016870;28;93577;-35
2022/04/10 07:10:22;;;;;;;4.28;2.42;;;6.10;99.90;;;;;;5016541;28;93859;-33
2022/04/10 07:12:48;;;;;;;5.43;2.28;;;6.40;99.90;;;;;;5015228;28;94681;-36
2022/04/10 07:15:13;;;;;;;9.90;2.78;;;6.70;99.90;;;;;;5016617;28;94813;-31
2022/04/10 07:17:39;;;;;;;5.45;1.92;;;6.60;99.90;;;;;;5016185;28;94469;-31
2022/04/10 07:20:05;;;;;;;5.43;2.80;;;6.30;99.90;;;;;;5016149;28;93963;-31
2022/04/10 07:25:16;;;;;;;4.20;1.80;;;6.20;99.90;;;;;;5014855;28;94983;-34
2022/04/10 07:27:42;;;;;;;2.40;2.03;;;6.10;99.90;;;;;;5016350;28;94351;-31
2022/04/10 07:30:07;;;;;;;7.28;1.95;;;6.10;99.90;;;;;;5015571;28;94258;-32
2022/04/10 07:32:33;;;;;;;3.03;1.08;;;6.00;99.90;;;;;;5015950;28;94759;-33
2022/04/10 07:35:02;;;;;;;8.13;2.45;;;6.00;99.90;;;;;;5015106;28;94588;-35
2022/04/10 07:37:28;;;;;;;5.10;1.83;;;6.00;99.90;;;;;;5016267;28;94434;-31
2022/04/10 07:39:54;;;;;;;5.63;2.83;;;6.20;99.90;;;;;;5016009;28;94248;-31
2022/04/10 07:42:20;;;;;;;7.85;2.05;;;6.20;99.90;;;;;;5015607;28;96403;-32
2022/04/10 07:44:45;;;;;;;6.22;2.15;;;6.30;99.90;;;;;;5014993;28;94290;-32
2022/04/10 07:47:26;;;;;;;6.10;2.53;;;6.60;99.90;;;;;;4997555;28;94514;-35
2022/04/10 07:49:53;;;;;;;7.47;3.00;;;6.90;99.90;;;;;;5015941;28;93154;-34
2022/04/10 07:52:19;;;;;;;9.90;2.45;;;7.20;99.90;;;;;;5019134;28;94675;-30
2022/04/10 07:54:45;;;;;;;7.75;1.95;;;7.50;99.90;;;;;;5018574;28;93986;-33
2022/04/10 07:57:11;;;;;;;6.40;2.70;;;7.80;99.90;;;;;;5019524;28;94274;-35
2022/04/10 07:59:37;;;;;;;4.15;1.98;;;7.90;99.90;;;;;;5018897;28;92408;-34
2022/04/10 08:02:03;;;;;;;6.70;2.45;;;7.60;99.90;;;;;;4999981;28;94984;-32
2022/04/10 08:04:28;;;;;;;4.88;2.28;;;7.60;99.90;;;;;;5019257;28;94913;-33
2022/04/10 08:06:54;;;;;;;8.57;2.33;;;7.40;99.90;;;;;;5018625;28;94409;-31
2022/04/10 08:09:20;;;;;;;10.20;2.85;;;7.30;99.90;;;;;;5018912;28;93533;-36
2022/04/10 08:11:45;;;;;;;8.60;2.72;;;7.60;99.90;;;;;;5017753;28;95929;-35
2022/04/10 08:14:11;;;;;;;8.43;2.65;;;8.10;99.90;;;;;;5018254;28;95902;-36
2022/04/10 08:16:37;;;;;;;8.73;3.15;;;8.50;99.90;;;;;;5019053;28;94133;-32
2022/04/10 08:19:02;;;;;;;3.25;2.05;;;8.80;99.90;;;;;;5018366;28;93579;-32
2022/04/10 08:21:28;;;;;;;4.85;2.33;;;9.20;99.90;;;;;;5018779;28;94607;-35
2022/04/10 08:23:54;;;;;;;6.22;2.63;;;9.40;99.90;;;;;;5018024;28;94490;-36
2022/04/10 08:26:19;;;;;;;8.38;3.15;;;9.50;99.90;;;;;;5018300;28;93562;-33
2022/04/10 08:28:45;;;;;;;10.73;2.75;;;9.20;99.90;;;;;;5018550;28;91377;-34
2022/04/10 08:31:10;;;;;;;6.93;1.88;;;9.40;99.90;;;;;;5018289;28;94832;-30
2022/04/10 08:33:36;;;;;;;3.83;1.92;;;9.80;99.90;;;;;;5018667;28;96354;-33
2022/04/10 08:36:02;;;;;;;3.80;2.03;;;9.00;96.40;;;;;;5018272;28;95086;-34
2022/04/10 08:38:27;;;;;;;13.13;2.38;;;9.20;99.90;;;;;;5018647;28;92991;-35
2022/04/10 08:40:59;;;;;;;7.32;2.53;;;8.50;99.90;;;;;;5017623;28;96463;-34
2022/04/10 08:43:25;;;;;;;5.30;2.00;;;9.20;99.90;;;;;;5018428;28;94163;-33
2022/04/10 08:45:52;;;;;;;7.45;2.92;;;9.30;99.90;;;;;;5017984;28;93231;-31
2022/04/10 08:48:18;;;;;;;6.63;2.55;;;9.10;99.90;;;;;;5018645;28;93359;-36
2022/04/10 08:50:44;;;;;;;7.90;2.20;;;9.00;99.90;;;;;;5017618;28;94784;-33
2022/04/10 08:53:10;;;;;;;4.05;2.00;;;8.80;99.90;;;;;;5018357;28;94631;-32
2022/04/10 08:55:36;;;;;;;4.53;2.08;;;9.30;99.90;;;;;;5018133;28;93428;-34
2022/04/10 08:58:03;;;;;;;8.63;2.40;;;9.30;99.90;;;;;;5018037;28;92236;-36
2022/04/10 09:00:28;;;;;;;8.18;2.40;;;9.50;99.90;;;;;;4999135;28;96800;-33
2022/04/10 09:02:54;;;;;;;4.55;2.13;;;9.00;99.90;;;;;;5016713;28;98650;-33
2022/04/10 09:05:21;;;;;;;11.73;2.00;;;9.10;99.90;;;;;;5017870;28;93633;-35
2022/04/10 09:08:11;;;;;;;11.18;2.70;;;9.30;99.90;;;;;;5017961;28;94274;-32
2022/04/10 09:10:52;;;;;;;4.60;2.90;;;9.40;99.90;;;;;;5017540;28;94887;-33
2022/04/10 09:13:30;;;;;;;10.25;2.65;;;9.40;99.90;;;;;;5017129;28;94050;-34
2022/04/10 09:16:12;;;;;;;6.32;2.22;;;10.00;99.90;;;;;;5017411;28;93204;-35
2022/04/10 09:18:44;;;;;;;6.95;1.83;;;10.20;99.90;;;;;;5018569;28;93356;-34
2022/04/10 09:21:10;;;;;;;4.75;1.83;;;10.10;94.30;;;;;;5017768;28;94586;-34
2022/04/10 09:23:35;;;;;;;6.68;2.50;;;10.10;96.50;;;;;;5017076;28;97143;-33
2022/04/10 09:26:01;;;;;;;2.78;1.77;;;10.60;99.90;;;;;;5017143;28;93118;-33
2022/04/10 09:28:48;;;;;;;6.35;2.25;;;10.20;89.10;;;;;;5017139;28;94554;-35
2022/04/10 09:31:27;;;;;;;3.10;1.97;;;10.50;91.10;;;;;;5017487;28;93911;-35
2022/04/10 09:33:54;;;;;;;8.05;2.08;;;10.60;99.90;;;;;;5016902;28;94574;-32
2022/04/10 09:36:42;;;;;;;7.45;2.88;;;11.30;93.80;;;;;;5000532;28;93299;-32
2022/04/10 09:39:37;;;;;;;8.60;2.05;;;10.80;91.20;;;;;;5017020;28;93724;-33
2022/04/10 09:42:08;;;;;;;5.38;1.90;;;10.30;92.40;;;;;;5006519;28;95113;-33
2022/04/10 09:44:36;;;;;;;6.00;1.90;;;10.00;95.50;;;;;;5017764;28;94520;-36
2022/04/10 09:47:06;;;;;;;6.88;2.03;;;9.70;95.30;;;;;;5018067;28;94446;-34
2022/04/10 09:49:33;;;;;;;8.35;2.65;;;9.70;99.00;;;;;;5017847;28;93474;-32
2022/04/10 09:52:07;;;;;;;7.13;2.47;;;10.30;98.60;;;;;;5015930;28;95572;-33
2022/04/10 09:54:50;;;;;;;7.75;2.45;;;10.60;96.90;;;;;;5017155;28;95334;-36
2022/04/10 09:57:20;;;;;;;5.20;2.30;;;11.10;77.30;;;;;;5016839;28;94322;-36
2022/04/10 09:59:48;;;;;;;6.30;2.40;;;11.20;88.80;;;;;;5017616;28;94385;-32
2022/04/10 10:02:16;;;;;;;4.20;1.75;;;10.90;80.70;;;;;;5016699;28;94932;-33
2022/04/10 10:04:43;;;;;;;7.37;2.37;;;11.30;91.50;;;;;;5016644;28;94062;-32
2022/04/10 10:07:17;;;;;;;7.40;2.47;;;11.00;92.40;;;;;;5015971;28;94729;-36
2022/04/10 10:09:43;;;;;;;5.82;1.95;;;11.30;91.70;;;;;;5016993;28;92402;-32
2022/04/10 10:12:09;;;;;;;3.30;1.65;;;11.40;73.50;;;;;;5017355;28;94592;-31
2022/04/10 10:14:36;;;;;;;4.90;2.10;;;11.60;78.60;;;;;;5015504;27;96474;-34
2022/04/10 10:17:04;;;;;;;7.80;2.00;;;11.90;91.00;;;;;;5016247;28;93618;-32
2022/04/10 10:19:34;;;;;;;;;;;11.90;77.50;;;;;;5017327;28;93116;-32
2022/04/10 10:22:03;;;;;;;4.15;1.85;;;11.60;73.20;;;;;;5018055;28;94907;-36
2022/04/10 10:24:50;;;;;;;5.05;2.00;;;11.90;76.40;;;;;;5016748;28;94129;-36
2022/04/10 10:27:29;;;;;;;6.63;1.80;;;10.80;65.80;;;;;;5017430;28;92302;-36
2022/04/10 10:30:18;;;;;;;3.75;1.70;;;10.70;75.00;;;;;;5017107;28;94610;-33
2022/04/10 10:32:50;;;;;;;3.88;1.38;;;11.30;76.30;;;;;;5016064;28;93445;-34
2022/04/10 10:35:39;;;;;;;3.70;1.02;;;12.00;69.70;;;;;;5017039;28;93541;-35
2022/04/10 10:38:22;;;;;;;5.32;1.77;;;11.60;65.70;;;;;;5014400;28;94450;-34
2022/04/10 10:41:07;;;;;;;2.63;1.35;;;11.50;61.30;;;;;;5014268;28;93506;-35
2022/04/10 10:43:32;;;;;;;2.22;1.20;;;11.30;68.20;;;;;;5013856;28;95422;-33
2022/04/10 10:45:58;;;;;;;8.25;2.20;;;10.70;65.30;;;;;;5014147;28;103030;-36
2022/04/10 10:48:32;;;;;;;9.63;2.90;;;10.20;99.60;;;;;;5014786;28;94490;-34
2022/04/10 10:51:03;;;;;;;6.93;2.22;;;9.40;99.90;;;;;;5014467;28;92066;-32
2022/04/10 10:53:52;;;;;;;5.65;2.03;;;9.20;99.90;;;;;;5013778;27;94753;-33
2022/04/10 10:56:17;;;;;;;4.90;2.30;;;8.70;99.90;;;;;;5014240;27;93911;-31
2022/04/10 10:58:43;;;;;;;7.47;2.72;;;9.30;99.90;;;;;;5014989;28;92141;-34
2022/04/10 11:01:17;;;;;;;6.75;2.63;;;9.90;99.90;;;;;;5014754;27;93918;-32
2022/04/10 11:03:59;;;;;;;7.65;2.45;;;10.50;99.90;;;;;;5013925;28;94774;-35
2022/04/10 11:06:27;;;;;;;6.50;3.30;;;10.80;99.90;;;;;;5013718;28;94624;-34
2022/04/10 11:08:53;;;;;;;11.43;3.33;;;11.10;99.90;;;;;;5013693;27;95617;-33
2022/04/10 11:11:19;;;;;;;6.07;1.98;;;11.50;99.90;;;;;;5014509;28;93462;-35
2022/04/10 11:13:46;;;;;;;4.38;1.85;;;11.20;79.90;;;;;;5014047;27;95580;-33
2022/04/10 11:16:14;;;;;;;8.90;2.30;;;11.30;99.90;;;;;;5013861;27;94453;-32
2022/04/10 11:18:49;;;;;;;8.23;2.55;;;11.60;99.90;;;;;;5014123;27;93241;-36
2022/04/10 11:21:18;;;;;;;7.78;2.20;;;12.10;91.40;;;;;;5013977;27;92519;-34
2022/04/10 11:23:48;;;;;;;6.32;1.80;;;11.30;96.70;;;;;;5013254;27;94804;-33
2022/04/10 11:26:16;;;;;;;6.40;2.03;;;10.90;84.60;;;;;;5014830;27;95197;-34
2022/04/10 11:28:55;;;;;;;7.17;2.07;;;10.40;98.30;;;;;;5017192;27;94315;-36
2022/04/10 11:31:41;;;;;;;7.20;1.90;;;10.40;99.90;;;;;;5017607;27;94148;-35
2022/04/10 11:34:18;;;;;;;2.08;1.77;;;10.80;99.90;;;;;;5017041;27;96189;-35
2022/04/10 11:36:52;;;;;;;3.50;1.73;;;11.10;94.60;;;;;;5017552;28;95420;-32
2022/04/10 11:39:22;;;;;;;5.93;1.98;;;11.40;87.20;;;;;;5017387;27;93683;-35
2022/04/10 11:41:49;;;;;;;9.85;2.83;;;11.10;87.30;;;;;;5016090;28;92950;-34
2022/04/10 11:44:15;;;;;;;9.30;2.47;;;10.80;95.70;;;;;;5017649;28;94699;-32
2022/04/10 11:46:44;;;;;;;6.78;2.40;;;11.10;94.10;;;;;;5016751;28;94881;-32
2022/04/10 11:49:10;;;;;;;6.30;1.88;;;11.60;88.80;;;;;;5017735;28;93329;-33
2022/04/10 11:51:59;;;;;;;4.47;2.22;;;11.80;85.70;;;;;;5016871;28;94400;-35
2022/04/10 11:54:36;;;;;;;14.55;1.83;;;12.10;72.70;;;;;;5015807;28;94554;-34
2022/04/10 11:57:03;;;;;;;7.00;1.85;;;11.70;70.70;;;;;;5016860;28;94310;-33
2022/04/10 11:59:35;;;;;;;4.47;1.77;;;11.80;66.40;;;;;;5017241;28;94774;-35
2022/04/10 12:02:07;;;;;;;2.30;1.30;;;12.10;70.10;;;;;;5016750;28;94238;-37
2022/04/10 12:04:36;;;;;;;4.32;1.77;;;12.10;71.20;;;;;;5016844;28;95615;-33
2022/04/10 12:07:19;;;;;;;3.80;1.52;;;12.20;72.30;;;;;;5016280;28;94771;-37
2022/04/10 12:09:48;;;;;;;2.65;2.03;;;11.80;74.30;;;;;;5016723;28;94606;-35
2022/04/10 12:12:15;;;;;;;3.13;1.42;;;11.00;68.20;;;;;;5016720;28;93033;-33
2022/04/10 12:14:41;;;;;;;4.63;2.60;;;10.70;82.30;;;;;;5017812;28;93677;-32
2022/04/10 12:17:11;;;;;;;4.30;1.73;;;10.80;88.40;;;;;;5017537;28;94842;-33
2022/04/10 12:19:37;;;;;;;5.55;2.03;;;11.30;90.00;;;;;;5016494;28;92542;-33
2022/04/10 12:22:04;;;;;;;6.38;2.22;;;11.50;85.20;;;;;;5016498;28;93694;-33
2022/04/10 12:24:30;;;;;;;4.32;2.13;;;11.80;92.60;;;;;;5015580;28;95765;-32
2022/04/10 12:26:57;;;;;;;9.20;2.70;;;11.90;78.80;;;;;;5019564;22;95623;-33
2022/04/10 12:29:23;;;;;;;8.27;2.07;;;12.20;77.70;;;;;;4977079;28;94467;-32
2022/04/10 12:31:50;;;;;;;5.38;2.03;;;12.50;80.80;;;;;;4975926;28;93261;-32
2022/04/10 12:34:17;;;;;;;7.80;1.75;;;12.70;79.60;;;;;;4976302;28;94804;-35
2022/04/10 12:36:52;;;;;;;4.32;2.22;;;12.50;72.30;;;;;;4975124;28;94848;-35
2022/04/10 12:39:26;;;;;;;5.15;1.85;;;11.40;70.70;;;;;;4976906;28;93832;-33
2022/04/10 12:42:07;;;;;;;3.22;1.40;;;11.40;79.10;;;;;;4977262;28;93813;-32
2022/04/10 12:44:34;;;;;;;4.85;2.17;;;10.90;73.50;;;;;;4976408;28;94811;-36
2022/04/10 12:47:00;;;;;;;5.53;1.77;;;10.80;75.80;;;;;;4976145;28;94388;-34
2022/04/10 12:49:26;;;;;;;10.63;2.15;;;11.10;87.10;;;;;;4975876;28;94448;-32
2022/04/10 12:52:05;;;;;;;6.25;2.05;;;11.40;78.60;;;;;;4976754;28;93443;-35
2022/04/10 12:54:37;;;;;;;2.75;1.80;;;11.00;78.70;;;;;;4976154;28;94652;-32
2022/04/10 12:57:04;;;;;;;5.50;2.47;;;10.80;89.00;;;;;;4974706;28;94867;-33
2022/04/10 12:59:49;;;;;;;4.73;3.00;;;11.00;99.90;;;;;;4976958;28;94254;-35